createdAt,value
2019-03-26T00:01:00.845Z,5.70
2019-03-26T00:10:59.793Z,5.70
2019-03-26T00:13:29.297Z,5.80
2019-03-26T00:15:58.816Z,5.80
2019-03-26T00:20:57.512Z,5.90
2019-03-26T00:23:27.021Z,5.80
2019-03-26T00:28:25.719Z,5.80
2019-03-26T00:30:55.229Z,5.80
2019-03-26T00:35:55.582Z,5.90
2019-03-26T00:40:54.486Z,5.60
2019-03-26T00:55:50.606Z,5.40
2019-03-26T00:58:20.113Z,5.20
2019-03-26T01:05:48.218Z,5.40
2019-03-26T01:15:46.139Z,5.60
2019-03-26T01:20:45.151Z,5.30
2019-03-26T01:23:14.681Z,5.30
2019-03-26T01:28:13.258Z,5.40
2019-03-26T01:30:43.179Z,5.50
2019-03-26T01:33:12.678Z,5.30
2019-03-26T01:38:11.802Z,5.40
2019-03-26T01:40:41.304Z,5.30
2019-03-26T01:48:09.724Z,5.60
2019-03-26T01:53:10.067Z,5.40
2019-03-26T02:03:07.379Z,5.40
2019-03-26T02:08:06.382Z,5.40
2019-03-26T02:10:35.893Z,5.50
2019-03-26T02:13:05.401Z,5.50
2019-03-26T02:18:04.645Z,5.60
2019-03-26T02:20:34.433Z,5.50
2019-03-26T02:23:03.943Z,5.40
2019-03-26T02:30:31.947Z,5.40
2019-03-26T02:35:30.753Z,5.10
2019-03-26T02:38:00.264Z,5.50
2019-03-26T02:45:46.700Z,5.60
2019-03-26T02:50:45.527Z,5.40
2019-03-26T02:55:44.621Z,5.50
2019-03-26T03:00:43.451Z,5.50
2019-03-26T03:03:13.176Z,5.60
2019-03-26T03:05:42.650Z,5.40
2019-03-26T03:15:39.643Z,5.10
2019-03-26T03:30:35.775Z,4.70
2019-03-26T03:33:05.693Z,4.90
2019-03-26T03:35:50.817Z,4.60
2019-03-26T03:38:06.336Z,4.70
2019-03-26T03:40:36.261Z,4.70
2019-03-26T03:50:34.306Z,4.20
2019-03-26T03:53:05.115Z,4.90
2019-03-26T03:55:35.851Z,4.70
2019-03-26T04:00:38.445Z,4.50
2019-03-26T04:03:09.395Z,4.60
2019-03-26T04:05:39.092Z,4.20
2019-03-26T04:10:38.204Z,4.40
2019-03-26T04:15:37.113Z,4.20
2019-03-26T04:18:06.630Z,4.40
2019-03-26T04:20:36.241Z,4.30
2019-03-26T04:28:04.143Z,4.20
2019-03-26T04:30:36.529Z,4.00
2019-03-26T04:35:35.568Z,3.90
2019-03-26T04:38:05.250Z,3.90
2019-03-26T04:40:34.653Z,4.00
2019-03-26T04:45:33.373Z,4.00
2019-03-26T04:48:02.841Z,4.10
2019-03-26T04:53:01.518Z,3.80
2019-03-26T04:55:30.933Z,3.70
2019-03-26T05:02:59.520Z,3.90
2019-03-26T05:07:58.399Z,3.90
2019-03-26T05:10:28.308Z,4.20
2019-03-26T05:20:26.553Z,4.60
2019-03-26T05:27:56.387Z,4.70
2019-03-26T05:40:22.893Z,4.80
2019-03-26T05:42:52.403Z,4.80
2019-03-26T05:47:51.108Z,4.80
2019-03-26T05:50:20.610Z,4.90
2019-03-26T05:57:48.726Z,5.20
2019-03-26T06:02:50.708Z,5.10
2019-03-26T06:07:49.514Z,5.20
2019-03-26T06:10:19.020Z,5.20
2019-03-26T06:17:49.029Z,5.50
2019-03-26T06:25:17.491Z,5.60
2019-03-26T06:27:47.000Z,5.60
2019-03-26T06:32:45.902Z,5.80
2019-03-26T06:35:15.495Z,5.80
2019-03-26T06:40:14.785Z,5.90
2019-03-26T06:42:44.236Z,5.80
2019-03-26T06:45:34.997Z,6.00
2019-03-26T06:48:04.957Z,5.80
2019-03-26T06:53:03.876Z,6.10
2019-03-26T06:58:02.679Z,5.80
2019-03-26T07:05:33.870Z,5.70
2019-03-26T07:10:32.778Z,5.60
2019-03-26T07:13:02.383Z,5.60
2019-03-26T07:18:01.297Z,5.70
2019-03-26T07:20:30.797Z,5.80
2019-03-26T07:25:29.400Z,5.90
2019-03-26T07:27:58.900Z,6.00
2019-03-26T07:30:43.605Z,6.00
2019-03-26T07:33:13.177Z,6.00
2019-03-26T07:35:42.897Z,5.90
2019-03-26T07:40:42.105Z,6.10
2019-03-26T07:43:11.505Z,6.00
2019-03-26T07:45:41.022Z,6.30
2019-03-26T07:50:39.719Z,6.20
2019-03-26T07:53:09.221Z,6.10
2019-03-26T08:00:39.489Z,6.10
2019-03-26T08:03:11.001Z,6.30
2019-03-26T08:05:41.862Z,6.60
2019-03-26T08:08:11.283Z,5.90
2019-03-26T08:20:37.501Z,6.60
2019-03-26T08:25:36.323Z,6.80
2019-03-26T08:28:05.901Z,6.80
2019-03-26T08:33:04.814Z,6.80
2019-03-26T08:35:34.426Z,6.80
2019-03-26T08:38:12.307Z,6.80
2019-03-26T08:55:30.465Z,6.90
2019-03-26T09:00:32.042Z,7.10
2019-03-26T09:03:05.081Z,8.20
2019-03-26T09:05:37.376Z,7.50
2019-03-26T09:08:06.919Z,7.70
2019-03-26T09:18:08.931Z,8.00
2019-03-26T09:23:12.426Z,7.80
2019-03-26T09:25:43.471Z,7.70
2019-03-26T09:28:12.905Z,7.90
2019-03-26T09:33:13.897Z,8.20
2019-03-26T09:35:45.145Z,8.20
2019-03-26T09:40:50.464Z,8.20
2019-03-26T09:48:24.810Z,8.20
2019-03-26T09:50:54.320Z,8.30
2019-03-26T09:53:23.857Z,8.30
2019-03-26T09:58:41.084Z,10.20
2019-03-26T10:01:10.574Z,8.80
2019-03-26T10:08:57.803Z,9.20
2019-03-26T10:13:56.537Z,9.20
2019-03-26T10:18:55.138Z,9.00
2019-03-26T10:21:24.653Z,9.00
2019-03-26T10:23:54.148Z,9.00
2019-03-26T10:28:52.753Z,8.70
2019-03-26T10:31:22.258Z,9.10
2019-03-26T10:33:51.769Z,9.10
2019-03-26T10:36:21.688Z,9.20
2019-03-26T10:39:04.997Z,9.40
2019-03-26T10:41:22.773Z,9.40
2019-03-26T10:53:52.663Z,9.60
2019-03-26T10:58:51.519Z,9.40
2019-03-26T11:01:20.912Z,9.30
2019-03-26T11:03:50.249Z,9.10
2019-03-26T11:06:19.598Z,9.10
2019-03-26T11:11:18.057Z,9.10
2019-03-26T11:13:47.478Z,9.40
2019-03-26T11:23:44.126Z,9.30
2019-03-26T11:26:13.736Z,9.10
2019-03-26T11:36:10.515Z,9.90
2019-03-26T11:38:39.849Z,9.20
2019-03-26T11:43:38.559Z,9.80
2019-03-26T11:48:36.992Z,9.90
2019-03-26T11:56:04.628Z,9.80
2019-03-26T12:01:03.494Z,10.20
2019-03-26T12:03:32.887Z,10.30
2019-03-26T12:08:32.001Z,10.30
2019-03-26T12:11:01.343Z,10.30
2019-03-26T12:13:32.349Z,10.30
2019-03-26T12:16:01.694Z,10.20
2019-03-26T12:28:27.481Z,9.90
2019-03-26T12:33:30.430Z,9.80
2019-03-26T12:48:26.372Z,9.50
2019-03-26T12:55:54.492Z,9.40
2019-03-26T13:03:23.913Z,9.70
2019-03-26T13:08:22.797Z,9.80
2019-03-26T13:30:47.021Z,10.10
2019-03-26T13:33:16.346Z,9.90
2019-03-26T13:38:15.331Z,9.90
2019-03-26T13:40:46.636Z,10.00
2019-03-26T13:50:43.285Z,10.30
2019-03-26T13:58:10.957Z,10.40
2019-03-26T14:03:09.949Z,10.60
2019-03-26T14:05:39.352Z,10.40
2019-03-26T14:10:41.343Z,10.40
2019-03-26T14:18:07.302Z,10.60
2019-03-26T14:20:37.318Z,10.20
2019-03-26T14:25:36.158Z,10.80
2019-03-26T14:28:05.572Z,10.90
2019-03-26T14:33:07.316Z,10.70
2019-03-26T14:35:36.756Z,10.50
2019-03-26T14:38:06.194Z,10.30
2019-03-26T14:50:34.470Z,10.00
2019-03-26T14:53:03.831Z,9.90
2019-03-26T14:58:02.273Z,9.50
2019-03-26T15:03:00.777Z,9.70
2019-03-26T15:05:30.138Z,9.50
2019-03-26T15:07:59.515Z,9.30
2019-03-26T15:17:56.897Z,9.40
2019-03-26T15:27:55.984Z,9.10
2019-03-26T15:30:25.388Z,9.00
2019-03-26T15:35:23.838Z,9.00
2019-03-26T15:37:53.209Z,8.90
2019-03-26T15:45:21.107Z,8.80
2019-03-26T15:47:51.262Z,8.70
2019-03-26T15:55:41.123Z,8.80
2019-03-26T15:58:10.683Z,8.20
2019-03-26T16:00:40.318Z,8.80
2019-03-26T16:03:09.746Z,8.70
2019-03-26T16:08:09.123Z,8.30
2019-03-26T16:10:38.494Z,8.50
2019-03-26T16:13:08.122Z,8.50
2019-03-26T16:28:05.097Z,8.10
2019-03-26T16:30:34.711Z,8.30
2019-03-26T16:33:04.065Z,8.30
2019-03-26T16:35:33.397Z,8.30
2019-03-26T16:43:01.483Z,8.00
2019-03-26T16:48:00.784Z,8.10
2019-03-26T16:52:59.271Z,8.10
2019-03-26T16:57:57.743Z,7.70
2019-03-26T17:00:34.324Z,7.80
2019-03-26T17:03:03.783Z,7.80
2019-03-26T17:25:27.265Z,7.30
2019-03-26T17:27:56.595Z,7.20
2019-03-26T17:30:26.023Z,7.20
2019-03-26T17:35:24.486Z,7.30
2019-03-26T17:37:59.989Z,7.40
2019-03-26T17:47:53.042Z,7.50
2019-03-26T17:50:22.391Z,7.20
2019-03-26T18:02:51.326Z,7.40
2019-03-26T18:05:28.917Z,7.50
2019-03-26T18:07:58.525Z,7.50
2019-03-26T18:22:54.991Z,7.50
2019-03-26T18:35:21.615Z,7.30
2019-03-26T18:37:50.945Z,7.70
2019-03-26T19:07:46.645Z,7.50
2019-03-26T19:10:33.896Z,7.80
2019-03-26T19:15:33.079Z,7.30
2019-03-26T19:18:03.908Z,7.50
2019-03-26T19:28:01.240Z,7.40
2019-03-26T19:30:30.889Z,7.50
2019-03-26T19:33:00.326Z,7.60
2019-03-26T19:38:00.127Z,7.50
2019-03-26T19:40:29.460Z,7.50
2019-03-26T19:47:58.826Z,7.20
2019-03-26T19:55:27.522Z,7.40
2019-03-26T20:00:26.922Z,7.40
2019-03-26T20:10:24.068Z,7.30
2019-03-26T20:12:53.468Z,7.30
2019-03-26T20:20:21.735Z,7.50
2019-03-26T20:27:52.112Z,7.50
2019-03-26T20:30:21.986Z,7.40
2019-03-26T20:35:20.881Z,7.50
2019-03-26T20:37:50.246Z,7.40
2019-03-26T20:42:49.893Z,7.40
2019-03-26T20:50:18.719Z,7.30
2019-03-26T20:57:48.288Z,7.50
2019-03-26T21:05:19.454Z,7.20
2019-03-26T21:07:49.601Z,8.20
2019-03-26T21:10:21.092Z,7.50
2019-03-26T21:17:51.630Z,7.40
2019-03-26T21:20:22.146Z,7.60
2019-03-26T21:22:51.757Z,7.30
2019-03-26T21:30:19.639Z,7.30
2019-03-26T21:32:50.611Z,7.20
2019-03-26T21:40:19.756Z,7.30
2019-03-26T21:52:50.768Z,7.40
2019-03-26T22:02:48.203Z,7.30
2019-03-26T22:07:46.695Z,7.50
2019-03-26T22:10:16.583Z,7.40
2019-03-26T22:22:43.184Z,7.20
2019-03-26T22:57:39.018Z,7.20
2019-03-26T23:02:47.863Z,7.30
2019-03-26T23:10:17.520Z,7.10
2019-03-26T23:17:48.266Z,6.90
2019-03-26T23:20:17.677Z,7.00
2019-03-26T23:25:16.948Z,6.80
2019-03-26T23:32:44.847Z,6.80
2019-03-26T23:35:14.500Z,6.60
2019-03-26T23:37:44.359Z,6.50
2019-03-26T23:40:14.198Z,6.70
2019-03-26T23:45:13.100Z,6.80
2019-03-26T23:52:40.864Z,6.80
2019-03-26T23:55:10.942Z,6.60
2019-03-26T23:57:40.303Z,6.80
